Map

Track Data

SID SEASON NUMBER BASIN SUBBASIN NAME ISO_TIME NATURE LAT LON WMO_WIND WMO_PRES WMO_AGENCY TRACK_TYPE DIST2LAND LANDFALL IFLAG USA_AGENCY USA_ATCF_ID USA_LAT USA_LON USA_RECORD USA_STATUS USA_WIND USA_PRES USA_SSHS USA_R34_NE USA_R34_SE USA_R34_SW USA_R34_NW USA_R50_NE USA_R50_SE USA_R50_SW USA_R50_NW USA_R64_NE USA_R64_SE USA_R64_SW USA_R64_NW USA_POCI USA_ROCI USA_RMW USA_EYE TOKYO_LAT TOKYO_LON TOKYO_GRADE TOKYO_WIND TOKYO_PRES TOKYO_R50_DIR TOKYO_R50_LONG TOKYO_R50_SHORT TOKYO_R30_DIR TOKYO_R30_LONG TOKYO_R30_SHORT TOKYO_LAND CMA_LAT CMA_LON CMA_CAT CMA_WIND CMA_PRES HKO_LAT HKO_LON HKO_CAT HKO_WIND HKO_PRES NEWDELHI_LAT NEWDELHI_LON NEWDELHI_GRADE NEWDELHI_WIND NEWDELHI_PRES NEWDELHI_CI NEWDELHI_DP NEWDELHI_POCI REUNION_LAT REUNION_LON REUNION_TYPE REUNION_WIND REUNION_PRES REUNION_TNUM REUNION_CI REUNION_RMW REUNION_R34_NE REUNION_R34_SE REUNION_R34_SW REUNION_R34_NW REUNION_R50_NE REUNION_R50_SE REUNION_R50_SW REUNION_R50_NW REUNION_R64_NE REUNION_R64_SE REUNION_R64_SW REUNION_R64_NW BOM_LAT BOM_LON BOM_TYPE BOM_WIND BOM_PRES BOM_TNUM BOM_CI BOM_RMW BOM_R34_NE BOM_R34_SE BOM_R34_SW BOM_R34_NW BOM_R50_NE BOM_R50_SE BOM_R50_SW BOM_R50_NW BOM_R64_NE BOM_R64_SE BOM_R64_SW BOM_R64_NW BOM_ROCI BOM_POCI BOM_EYE BOM_POS_METHOD BOM_PRES_METHOD NADI_LAT NADI_LON NADI_CAT NADI_WIND NADI_PRES WELLINGTON_LAT WELLINGTON_LON WELLINGTON_WIND WELLINGTON_PRES DS824_LAT DS824_LON DS824_STAGE DS824_WIND DS824_PRES TD9636_LAT TD9636_LON TD9636_STAGE TD9636_WIND TD9636_PRES TD9635_LAT TD9635_LON TD9635_WIND TD9635_PRES TD9635_ROCI NEUMANN_LAT NEUMANN_LON NEUMANN_CLASS NEUMANN_WIND NEUMANN_PRES MLC_LAT MLC_LON MLC_CLASS MLC_WIND MLC_PRES USA_GUST BOM_GUST BOM_GUST_PER REUNION_GUST REUNION_GUST_PER USA_SEAHGT USA_SEARAD_NE USA_SEARAD_SE USA_SEARAD_SW USA_SEARAD_NW STORM_SPEED STORM_DIR
1995193N06156 1995 31 WP MM FAYE 1995-07-12 06:00:00 NR 6.20000 155.500 main 1120 1086 O_____________ jtwc_wp WP051995 6.20000 155.500 15 -1 10 258
1995193N06156 1995 31 WP MM FAYE 1995-07-12 09:00:00 NR 6.09259 155.007 main 1086 1053 P_____________ WP051995 6.09259 155.007 15 -1 10 259
1995193N06156 1995 31 WP MM FAYE 1995-07-12 12:00:00 NR 6.00000 154.500 main 1053 1023 O_____________ jtwc_wp WP051995 6.00000 154.500 15 -1 11 261
1995193N06156 1995 31 WP MM FAYE 1995-07-12 15:00:00 NR 5.93494 153.965 main 1023 1003 P_____________ WP051995 5.93494 153.965 15 -1 11 265
1995193N06156 1995 31 WP MM FAYE 1995-07-12 18:00:00 NR 5.90000 153.400 main 1003 986 O_____________ jtwc_wp WP051995 5.90000 153.400 15 -1 11 267
1995193N06156 1995 31 WP MM FAYE 1995-07-12 21:00:00 NR 5.88493 152.815 main 986 974 P_____________ WP051995 5.88493 152.815 15 -1 12 270
1995193N06156 1995 31 WP MM FAYE 1995-07-13 00:00:00 NR 5.90000 152.200 main 974 966 O_____________ jtwc_wp WP051995 5.90000 152.200 15 -1 13 272
1995193N06156 1995 31 WP MM FAYE 1995-07-13 03:00:00 NR 5.91995 151.557 main 966 964 P_____________ WP051995 5.91995 151.557 15 -1 13 274
1995193N06156 1995 31 WP MM FAYE 1995-07-13 06:00:00 NR 6.00000 150.900 main 974 973 O_____________ jtwc_wp WP051995 6.00000 150.900 15 -1 13 280
1995193N06156 1995 31 WP MM FAYE 1995-07-13 09:00:00 NR 6.16247 150.235 main 980 973 P_____________ WP051995 6.16247 150.235 17 -1 14 287
1995193N06156 1995 31 WP MM FAYE 1995-07-13 12:00:00 NR 6.40000 149.600 main 983 980 O_____________ jtwc_wp WP051995 6.40000 149.600 20 -1 13 294
1995193N06156 1995 31 WP MM FAYE 1995-07-13 15:00:00 NR 6.68486 149.042 main 1002 1002 P_____________ WP051995 6.68486 149.042 20 -1 13 299
1995193N06156 1995 31 WP MM FAYE 1995-07-13 18:00:00 NR 7.00000 148.500 main 1027 1025 O_____________ jtwc_wp WP051995 7.00000 148.500 20 -1 13 298
1995193N06156 1995 31 WP MM FAYE 1995-07-13 21:00:00 NR 7.29248 147.900 main 1054 1054 P_____________ WP051995 7.29248 147.900 20 -1 13 297
1995193N06156 1995 31 WP MM FAYE 1995-07-14 00:00:00 NR 7.60000 147.300 main 1086 1086 O_____________ jtwc_wp WP051995 7.60000 147.300 20 -1 13 299
1995193N06156 1995 31 WP MM FAYE 1995-07-14 03:00:00 NR 7.92740 146.742 main 1120 1120 P_____________ WP051995 7.92740 146.742 20 -1 13 303
1995193N06156 1995 31 WP MM FAYE 1995-07-14 06:00:00 NR 8.30000 146.200 main 1166 1166 O_____________ jtwc_wp WP051995 8.30000 146.200 20 -1 14 306
1995193N06156 1995 31 WP MM FAYE 1995-07-14 09:00:00 NR 8.73499 145.635 main 1215 1215 P_____________ WP051995 8.73499 145.635 20 -1 14 310
1995193N06156 1995 31 WP MM FAYE 1995-07-14 12:00:00 NR 9.20000 145.100 main 1277 1277 O_____________ jtwc_wp WP051995 9.20000 145.100 20 -1 14 312
1995193N06156 1995 31 WP MM FAYE 1995-07-14 15:00:00 NR 9.64243 144.620 main 1329 1329 P_____________ WP051995 9.64243 144.620 20 -1 13 315
1995193N06156 1995 31 WP MM FAYE 1995-07-14 18:00:00 NR 10.1000 144.200 main 1392 1392 O_____________ jtwc_wp WP051995 10.1000 144.200 20 -1 12 321
1995193N06156 1995 31 WP MM FAYE 1995-07-14 21:00:00 NR 10.5849 143.835 main 1456 1456 P_____________ WP051995 10.5849 143.835 22 -1 12 325
1995193N06156 1995 31 WP MM FAYE 1995-07-15 00:00:00 NR 11.1000 143.500 main 1518 1518 O_____________ jtwc_wp WP051995 11.1000 143.500 25 -1 13 328
1995193N06156 1995 31 WP MM FAYE 1995-07-15 03:00:00 NR 11.6650 143.135 main 1585 1585 P_____________ WP051995 11.6650 143.135 25 -1 13 328
1995193N06156 1995 31 WP MM FAYE 1995-07-15 06:00:00 NR 12.2000 142.800 main 1627 1627 O_____________ jtwc_wp WP051995 12.2000 142.800 25 -1 11 327
1995193N06156 1995 31 WP MM FAYE 1995-07-15 09:00:00 NR 12.6075 142.520 main 1660 1660 P_____________ WP051995 12.6075 142.520 25 -1 9 329
1995193N06156 1995 31 WP MM FAYE 1995-07-15 12:00:00 NR 13.0000 142.300 main 1697 1697 O_____________ jtwc_wp WP051995 13.0000 142.300 25 -1 10 337
1995193N06156 1995 31 WP MM FAYE 1995-07-15 15:00:00 NR 13.4925 142.127 main 1741 1741 P_____________ WP051995 13.4925 142.127 25 -1 10 344
1995193N06156 1995 31 WP MM FAYE 1995-07-15 18:00:00 NR 14.0000 142.000 main 1789 1784 O_____________ jtwc_wp WP051995 14.0000 142.000 25 -1 10 346
1995193N06156 1995 31 WP MM FAYE 1995-07-15 21:00:00 NR 14.4425 141.892 main 1787 1783 P_____________ WP051995 14.4425 141.892 25 -1 9 348
1995193N06156 1995 31 WP MM FAYE 1995-07-16 00:00:00 NR 14.9000 141.800 main 1788 1782 O_____________ jtwc_wp WP051995 14.9000 141.800 25 -1 10 350
1995193N06156 1995 31 WP MM FAYE 1995-07-16 03:00:00 NR 15.4650 141.700 main 1787 1787 P_____________ WP051995 15.4650 141.700 25 -1 11 353
1995193N06156 1995 31 WP MM FAYE 1995-07-16 06:00:00 TS 16.0000 141.660 1006 tokyo main 1798 1790 OO____________ jtwc_wp WP051995 16.0000 141.600 25 -1 16.0000 141.900 2 1006 0 0 0 9 354
1995193N06156 1995 31 WP MM FAYE 1995-07-16 09:00:00 TS 16.3775 141.611 main 1797 1797 PP____________ WP051995 16.3875 141.515 27 -1 16.3575 141.803 2 1005 0 0 7 352
1995193N06156 1995 31 WP MM FAYE 1995-07-16 12:00:00 TS 16.7000 141.550 1004 tokyo main 1805 1793 OOO___________ jtwc_wp WP051995 16.7000 141.400 30 -1 16.7000 141.700 2 1004 0 0 0 16.7000 141.700 1 23 1004 7 345
1995193N06156 1995 31 WP MM FAYE 1995-07-16 15:00:00 TS 17.0165 141.431 main 1793 1788 PPP___________ WP051995 17.0225 141.223 30 -1 17.0149 141.580 2 1003 0 0 17.0075 141.553 1 26 1003 7 335
1995193N06156 1995 31 WP MM FAYE 1995-07-16 18:00:00 TS 17.3000 141.255 1002 tokyo main 1792 1774 OOO___________ jtwc_wp WP051995 17.3000 141.000 30 -1 17.3000 141.400 2 1002 0 0 0 17.3000 141.400 1 29 1002 7 325
1995193N06156 1995 31 WP MM FAYE 1995-07-16 21:00:00 TS 17.5508 141.037 main 1771 1754 PPP___________ WP051995 17.5225 140.765 32 -1 17.5651 141.115 2 1002 0 0 17.5649 141.230 1 29 1002 7 315
1995193N06156 1995 31 WP MM FAYE 1995-07-17 00:00:00 TS 17.7667 140.767 1002 tokyo main 1758 1732 OOO___________ jtwc_wp WP051995 17.7000 140.500 35 0 17.8000 140.800 2 1002 0 0 0 17.8000 141.000 1 29 1002 7 307
1995193N06156 1995 31 WP MM FAYE 1995-07-17 03:00:00 TS 17.9650 140.469 main 1735 1709 PPP___________ WP051995 17.8650 140.193 35 0 18.0149 140.550 2 1001 0 0 18.0151 140.665 1 29 1001 7 303
1995193N06156 1995 31 WP MM FAYE 1995-07-17 06:00:00 TS 18.1333 140.167 1000 tokyo main 1709 1688 OOO___________ jtwc_wp WP051995 18.0000 139.900 35 0 18.2000 140.300 2 1000 0 0 0 18.2000 140.300 1 29 1000 6 300
1995193N06156 1995 31 WP MM FAYE 1995-07-17 09:00:00 TS 18.2816 139.892 main 1688 1673 PPP___________ WP051995 18.0999 139.685 37 0 18.3725 140.008 2 999 0 0 18.3724 139.985 1 31 999 6 298
1995193N06156 1995 31 WP MM FAYE 1995-07-17 12:00:00 TS 18.4000 139.646 35 998 tokyo main 1663 1648 OOOO__________ jtwc_wp WP051995 18.2000 139.500 40 0 18.5000 139.700 3 35 998 0 9 100 100 0 18.5000 139.700 2 34 998 18.4000 139.800 TD 25 1002 5 295
1995193N06156 1995 31 WP MM FAYE 1995-07-17 15:00:00 TS 18.4935 139.419 main 1648 1627 PPPP__________ WP051995 18.3424 139.315 40 0 18.5649 139.407 3 35 997 0 9 110 110 18.5648 139.465 2 34 996 18.5100 139.560 TD 27 1001 5 291
1995193N06156 1995 31 WP MM FAYE 1995-07-17 18:00:00 TS 18.5733 139.167 35 996 tokyo main 1627 1604 OOOO__________ jtwc_wp WP051995 18.5000 139.100 40 0 18.6000 139.100 3 35 996 0 9 120 120 0 18.6000 139.200 2 34 995 18.6000 139.300 TD 30 1000 6 286
1995193N06156 1995 31 WP MM FAYE 1995-07-17 21:00:00 TS 18.6462 138.858 main 1604 1571 PPPP__________ WP051995 18.6424 138.837 42 0 18.6424 138.765 3 35 995 0 9 125 125 18.6425 138.822 2 36 993 18.6575 139.007 TD 32 998 7 283
1995193N06156 1995 31 WP MM FAYE 1995-07-18 00:00:00 TS 18.7250 138.500 35 994 tokyo main 1571 1538 OOOO__________ jtwc_wp WP051995 18.8000 138.500 45 0 18.7000 138.400 3 35 994 0 9 130 130 0 18.7000 138.400 2 38 992 18.7000 138.700 TS 35 996 7 285
1995193N06156 1995 31 WP MM FAYE 1995-07-18 03:00:00 TS 18.8337 138.114 main 1538 1506 PPPP__________ WP051995 19.0075 138.073 47 0 18.7925 138.000 3 37 992 0 9 130 130 18.7925 137.978 2 41 991 18.7424 138.407 TS 35 996 8 287
1995193N06156 1995 31 WP MM FAYE 1995-07-18 06:00:00 TS 18.9500 137.725 40 990 tokyo main 1511 1483 OOOO__________ jtwc_wp WP051995 19.2000 137.600 50 0 18.9000 137.600 3 40 990 0 9 130 130 0 18.9000 137.600 2 44 990 18.8000 138.100 TS 35 996 7 287
1995193N06156 1995 31 WP MM FAYE 1995-07-18 09:00:00 TS 19.0480 137.379 main 1483 1452 PPPP__________ WP051995 19.3074 137.142 52 0 18.9999 137.242 3 42 987 0 9 140 140 18.9997 137.357 2 44 990 18.8849 137.772 TS 37 994 7 287
1995193N06156 1995 31 WP MM FAYE 1995-07-18 12:00:00 TS 19.1500 137.025 45 985 tokyo main 1458 1428 OOOO__________ jtwc_wp WP051995 19.4000 136.700 55 0 19.1000 136.900 3 45 985 0 9 150 150 0 19.1000 137.100 2 44 990 19.0000 137.400 TS 40 992 8 287
1995193N06156 1995 31 WP MM FAYE 1995-07-18 15:00:00 TS 19.2675 136.620 main 1428 1399 PPPP__________ WP051995 19.5499 136.285 57 0 19.1923 136.565 3 45 985 0 9 150 150 19.1927 136.658 2 46 987 19.1349 136.972 TS 42 991 8 288
1995193N06156 1995 31 WP MM FAYE 1995-07-18 18:00:00 TS 19.4000 136.200 45 985 tokyo main 1399 1365 OOOO__________ jtwc_wp WP051995 19.7000 135.900 60 0 19.3000 136.200 3 45 985 0 9 150 150 0 19.3000 136.200 3 48 985 19.3000 136.500 TS 45 990 8 289
1995193N06156 1995 31 WP MM FAYE 1995-07-18 21:00:00 TS 19.5274 135.800 main 1365 1338 PPPP__________ WP051995 19.7999 135.535 62 0 19.4126 135.750 3 47 982 0 9 155 155 19.4121 135.915 3 53 982 19.4850 136.000 TS 45 990 8 292
1995193N06156 1995 31 WP MM FAYE 1995-07-19 00:00:00 TS 19.7000 135.400 50 980 tokyo main 1338 1312 OOOO__________ jtwc_wp WP051995 19.9000 135.200 65 1 19.6000 135.300 4 50 980 9 9 160 160 0 19.6000 135.600 3 58 980 19.7000 135.500 TS 45 990 9 300
1995193N06156 1995 31 WP MM FAYE 1995-07-19 03:00:00 TS 19.9636 135.001 main 1301 1267 PPPP__________ WP051995 20.0347 134.922 65 1 19.9347 134.957 4 52 977 9 9 160 160 19.9353 135.073 3 58 980 19.9498 135.050 TS 45 990 10 305
1995193N06156 1995 31 WP MM FAYE 1995-07-19 06:00:00 TS 20.2500 134.575 55 975 tokyo main 1257 1221 OOOO__________ jtwc_wp WP051995 20.2000 134.600 65 1 20.3000 134.600 4 55 975 9 50 50 9 160 160 0 20.3000 134.500 3 58 980 20.2000 134.600 TS 45 990 10 302
1995193N06156 1995 31 WP MM FAYE 1995-07-19 09:00:00 TS 20.4881 134.099 main 1221 1186 PPPP__________ WP051995 20.3927 134.115 67 1 20.5800 134.122 4 55 975 9 50 50 9 160 160 20.5797 134.042 3 58 980 20.3999 134.115 TS 47 987 10 296
1995193N06156 1995 31 WP MM FAYE 1995-07-19 12:00:00 TS 20.7000 133.600 55 975 tokyo main 1186 1153 OOOO__________ jtwc_wp WP051995 20.6000 133.600 70 1 20.8000 133.600 4 55 975 9 50 50 9 160 160 0 20.8000 133.600 3 58 980 20.6000 133.600 STS 50 985 10 294
1995193N06156 1995 31 WP MM FAYE 1995-07-19 15:00:00 TS 20.8892 133.114 main 1153 1123 PPPP__________ WP051995 20.7847 133.200 72 1 20.9649 133.092 4 55 975 9 50 50 9 160 160 20.9573 133.115 3 58 980 20.8500 133.050 STS 52 982 10 292
1995193N06156 1995 31 WP MM FAYE 1995-07-19 18:00:00 TS 21.0750 132.625 55 975 tokyo main 1119 1081 OOOO__________ jtwc_wp WP051995 21.0000 132.800 75 1 21.1000 132.600 4 55 975 9 50 50 9 160 160 0 21.1000 132.600 3 58 980 21.1000 132.500 STS 55 980 10 292
1995193N06156 1995 31 WP MM FAYE 1995-07-19 21:00:00 TS 21.2705 132.127 main 1074 1038 PPPP__________ WP051995 21.2773 132.330 77 1 21.2273 132.150 4 55 975 9 50 50 9 160 160 21.2851 132.035 3 58 980 21.2923 131.992 STS 55 980 10 295
1995193N06156 1995 31 WP MM FAYE 1995-07-20 00:00:00 TS 21.5000 131.625 55 975 tokyo main 1031 996 OOOO__________ jtwc_wp WP051995 21.6000 131.800 80 1 21.4000 131.700 4 55 975 9 50 50 9 160 160 0 21.5000 131.500 3 58 980 21.5000 131.500 STS 55 980 11 298
1995193N06156 1995 31 WP MM FAYE 1995-07-20 03:00:00 TS 21.7755 131.123 main 987 937 PPPP__________ WP051995 21.9502 131.193 82 1 21.6624 131.207 4 55 975 9 50 50 9 160 160 21.7196 131.092 3 58 980 21.7699 131.000 STS 55 980 11 303
1995193N06156 1995 31 WP MM FAYE 1995-07-20 06:00:00 TS 22.1000 130.625 55 975 tokyo main 927 878 OOOO__________ jtwc_wp WP051995 22.3000 130.600 85 2 22.0000 130.700 4 55 975 9 50 50 9 160 160 0 22.0000 130.700 3 58 980 22.1000 130.500 STS 55 980 11 307
1995193N06156 1995 31 WP MM FAYE 1995-07-20 09:00:00 TS 22.4620 130.137 main 864 816 PPPP__________ WP051995 22.5997 130.127 87 2 22.3862 130.200 4 55 975 9 50 50 9 160 160 22.3698 130.230 3 58 980 22.4924 129.993 STS 55 980 12 310
1995193N06156 1995 31 WP MM FAYE 1995-07-20 12:00:00 TS 22.8500 129.650 55 975 tokyo main 813 755 OOOO__________ jtwc_wp WP051995 22.9000 129.700 90 2 22.8000 129.700 4 55 975 9 50 50 9 160 160 0 22.8000 129.700 3 58 980 22.9000 129.500 STS 55 980 12 310
1995193N06156 1995 31 WP MM FAYE 1995-07-20 15:00:00 TS 23.2412 129.142 55 975 tokyo main 746 696 POPP__________ WP051995 23.2499 129.242 90 2 23.2000 129.200 4 55 975 9 50 50 9 160 160 0 23.2577 129.093 3 58 980 23.2574 129.035 STS 57 977 12 310
1995193N06156 1995 31 WP MM FAYE 1995-07-20 18:00:00 TS 23.6250 128.650 55 975 tokyo main 696 636 OOOO__________ jtwc_wp WP051995 23.6000 128.800 90 2 23.6000 128.700 4 55 975 9 50 50 9 160 160 0 23.7000 128.500 3 58 980 23.6000 128.600 STS 60 975 12 310
1995193N06156 1995 31 WP MM FAYE 1995-07-20 21:00:00 TS 23.9862 128.165 55 975 tokyo main 636 590 POPP__________ WP051995 23.8998 128.392 92 2 24.0000 128.100 4 55 975 9 50 50 9 160 160 0 24.0874 127.990 3 58 980 23.9574 128.177 STS 60 975 11 310
1995193N06156 1995 31 WP MM FAYE 1995-07-21 00:00:00 TS 24.3250 127.750 55 975 tokyo main 590 556 OOOO__________ jtwc_wp WP051995 24.2000 128.000 95 2 24.4000 127.600 4 55 975 9 50 50 9 160 160 0 24.4000 127.600 3 58 980 24.3000 127.800 STS 60 975 9 313
1995193N06156 1995 31 WP MM FAYE 1995-07-21 03:00:00 TS 24.5912 127.454 55 975 tokyo main 556 524 POPP__________ WP051995 24.5576 127.570 97 3 24.6000 127.400 4 55 975 9 50 50 9 160 160 0 24.5997 127.369 3 58 980 24.6074 127.477 STS 60 975 7 318
1995193N06156 1995 31 WP MM FAYE 1995-07-21 06:00:00 TS 24.8500 127.225 55 975 tokyo main 523 503 OOOO__________ jtwc_wp WP051995 24.9000 127.200 100 3 24.8000 127.300 4 55 975 9 50 50 9 160 160 0 24.8000 127.200 3 58 980 24.9000 127.200 STS 60 975 7 322
1995193N06156 1995 31 WP MM FAYE 1995-07-21 09:00:00 TS 25.1562 126.964 55 975 tokyo main 503 475 POPP__________ WP051995 25.1348 126.977 102 3 25.2000 127.000 4 55 975 9 50 50 9 160 160 0 25.1275 126.950 3 61 977 25.1625 126.927 STS 62 972 8 324
1995193N06156 1995 31 WP MM FAYE 1995-07-21 12:00:00 TS 25.4750 126.725 60 970 tokyo main 475 460 OOOO__________ jtwc_wp WP051995 25.4000 126.800 105 3 25.5000 126.700 4 60 970 9 50 50 9 160 160 0 25.5000 126.700 4 64 975 25.5000 126.700 T 65 970 9 331
1995193N06156 1995 31 WP MM FAYE 1995-07-21 15:00:00 TS 25.9050 126.508 60 970 tokyo main 462 454 POPP__________ WP051995 25.8201 126.528 105 3 25.9000 126.500 4 60 970 9 50 50 9 160 160 0 25.8350 126.477 4 66 972 26.0650 126.528 T 67 967 10 338
1995193N06156 1995 31 WP MM FAYE 1995-07-21 18:00:00 TS 26.3750 126.325 60 965 tokyo main 457 456 OOOO__________ jtwc_wp WP051995 26.3000 126.300 105 3 26.4000 126.300 4 60 965 9 70 70 9 180 180 0 26.2000 126.300 4 68 970 26.6000 126.400 T 70 965 9 341
1995193N06156 1995 31 WP MM FAYE 1995-07-21 21:00:00 TS 26.7231 126.196 60 965 tokyo main 460 460 POPP__________ WP051995 26.7499 126.190 105 3 26.7000 126.200 4 60 965 9 70 70 9 180 180 0 26.6349 126.140 4 68 970 26.8075 126.255 T 72 962 7 349
1995193N06156 1995 31 WP MM FAYE 1995-07-22 00:00:00 TS 27.0750 126.175 65 960 tokyo main 471 461 OOOO__________ jtwc_wp WP051995 27.2000 126.200 105 3 27.0000 126.200 5 65 960 9 70 70 9 180 180 0 27.1000 126.100 4 68 970 27.0000 126.200 T 75 960 8 7
1995193N06156 1995 31 WP MM FAYE 1995-07-22 03:00:00 TS 27.5025 126.309 65 960 tokyo main 461 456 POPP__________ WP051995 27.6274 126.298 105 3 27.4000 126.400 5 65 960 9 70 70 9 180 180 0 27.5350 126.247 4 68 970 27.4474 126.290 T 77 957 10 18
1995193N06156 1995 31 WP MM FAYE 1995-07-22 06:00:00 TS 28.0250 126.525 70 955 tokyo main 458 452 OOOO__________ jtwc_wp WP051995 28.1000 126.500 105 3 28.0000 126.600 5 70 955 9 70 70 9 210 210 0 28.0000 126.500 4 68 970 28.0000 126.500 T 80 955 11 21
1995193N06156 1995 31 WP MM FAYE 1995-07-22 09:00:00 TS 28.5432 126.751 70 955 tokyo main 444 386 POPP__________ WP051995 28.6626 126.785 105 3 28.5000 126.700 5 70 955 9 70 70 9 240 240 0 28.4975 126.736 4 68 967 28.5126 126.785 T 80 955 12 22
1995193N06156 1995 31 WP MM FAYE 1995-07-22 12:00:00 TS 29.1750 127.050 70 955 tokyo main 371 318 OOOO__________ jtwc_wp WP051995 29.3000 127.100 105 3 29.2000 127.000 5 70 955 9 70 70 2 300 180 0 29.1000 127.000 4 68 965 29.1000 127.100 T 80 955 14 22
1995193N06156 1995 31 WP MM FAYE 1995-07-22 15:00:00 TS 29.8557 127.345 70 955 tokyo main 312 256 POPP__________ WP051995 29.9700 127.380 105 3 29.8000 127.300 5 70 955 9 70 70 2 300 180 0 29.8477 127.322 4 72 962 29.8050 127.380 T 80 955 16 18
1995193N06156 1995 31 WP MM FAYE 1995-07-22 18:00:00 TS 30.6500 127.600 75 950 tokyo main 253 223 OOOO__________ jtwc_wp WP051995 30.7000 127.600 105 3 30.6000 127.600 5 75 950 9 70 70 2 300 180 0 30.7000 127.600 4 77 960 30.6000 127.600 T 80 955 17 13
1995193N06156 1995 31 WP MM FAYE 1995-07-22 21:00:00 TS 31.4612 127.777 75 950 tokyo main 216 145 POPP__________ WP051995 31.4400 127.731 105 3 31.4000 127.900 5 75 950 9 70 70 2 300 180 0 31.5849 127.745 4 77 960 31.4199 127.730 T 75 960 18 6
1995193N06156 1995 31 WP MM FAYE 1995-07-23 00:00:00 TS 32.4000 127.800 75 950 tokyo main 136 86 OOOO__________ jtwc_wp WP051995 32.3000 127.800 105 3 32.5000 127.800 5 75 950 9 70 70 2 270 150 0 32.5000 127.800 4 77 960 32.3000 127.800 T 70 965 19 0
1995193N06156 1995 31 WP MM FAYE 1995-07-23 03:00:00 TS 33.3356 127.790 70 955 tokyo main 86 33 POPP__________ WP051995 33.3850 127.858 100 3 33.3000 127.700 5 70 955 9 70 70 2 270 150 0 33.4149 127.772 4 72 965 33.2424 127.829 T 67 967 19 1
1995193N06156 1995 31 WP MM FAYE 1995-07-23 06:00:00 TS 34.3250 127.850 65 960 tokyo main 34 0 OOOO__________ jtwc_wp WP051995 34.5000 127.900 95 2 34.3000 127.800 5 65 960 9 60 60 3 220 120 0 34.3000 127.800 4 68 970 34.2000 127.900 T 65 970 18 6
1995193N06156 1995 31 WP MM FAYE 1995-07-23 09:00:00 TS 35.1685 128.022 60 975 tokyo main 0 0 POPP__________ WP051995 35.4446 127.892 82 1 35.0000 128.100 4 60 975 9 50 50 3 220 120 0 35.1073 128.025 4 63 975 35.1221 128.069 T 60 975 17 12
1995193N06156 1995 31 WP MM FAYE 1995-07-23 12:00:00 TS 36.0250 128.300 50 985 tokyo main 0 0 OOOO__________ jtwc_wp WP051995 36.3000 128.000 70 1 35.9000 128.400 4 50 985 9 3 180 80 0 35.9000 128.400 3 58 980 36.0000 128.400 STS 55 980 18 18
1995193N06156 1995 31 WP MM FAYE 1995-07-23 15:00:00 TS 36.8466 128.696 40 994 tokyo main 0 0 POPP__________ WP051995 37.1214 128.309 65 1 36.7000 128.700 3 40 994 0 3 180 80 0 36.7497 128.841 3 51 985 36.8151 128.933 STS 50 982 18 26
1995193N06156 1995 31 WP MM FAYE 1995-07-23 18:00:00 TS 37.6750 129.325 40 994 tokyo main 17 17 OOOO__________ jtwc_wp WP051995 37.9000 128.900 60 0 37.6000 129.400 3 40 994 0 3 180 80 0 37.6000 129.400 2 44 990 37.6000 129.600 TS 45 985 20 33
1995193N06156 1995 31 WP MM FAYE 1995-07-23 21:00:00 TS 38.4947 130.041 main 118 118 PPPP__________ WP051995 38.6803 129.794 57 0 38.4403 130.088 3 40 994 0 3 155 105 38.4298 130.056 2 41 991 38.4286 130.227 TS 42 987 20 38
1995193N06156 1995 31 WP MM FAYE 1995-07-24 00:00:00 TS 39.2500 130.875 40 994 tokyo main 195 188 OOOO__________ jtwc_wp WP051995 39.4000 130.900 55 0 39.2000 130.800 3 40 994 0 9 130 130 0 39.2000 130.800 2 38 992 39.2000 131.000 TS 40 990 19 43
1995193N06156 1995 31 WP MM FAYE 1995-07-24 03:00:00 TS 39.8936 131.746 main 196 196 PPPP__________ WP051995 40.0290 132.015 50 0 39.8470 131.486 3 37 996 0 9 130 130 39.8470 131.486 2 38 993 39.8515 131.996 TS 37 992 19 49
1995193N06156 1995 31 WP MM FAYE 1995-07-24 06:00:00 TS 40.5067 132.773 35 998 tokyo main 244 179 OOOO__________ jtwc_wp WP051995 40.6000 133.200 45 0 40.5000 132.400 3 35 998 0 9 130 130 0 40.5000 132.400 2 38 995 40.4000 133.200 TS 35 994 22 53
1995193N06156 1995 31 WP MM FAYE 1995-07-24 09:00:00 TS 41.2118 134.083 main 180 161 PPPP__________ WP051995 41.1709 134.414 42 0 41.3168 133.799 3 1000 0 9 41.3168 133.799 2 36 996 40.8738 134.556 TS 32 996 25 56
1995193N06156 1995 31 WP MM FAYE 1995-07-24 12:00:00 TS 41.9154 135.538 1002 tokyo main 170 165 OOOO__________ jtwc_wp WP051995 41.7000 135.700 40 0 42.1000 135.400 2 1002 0 0 0 42.1000 135.400 2 34 998 41.3000 136.000 TD 30 998 25 58
1995193N06156 1995 31 WP MM FAYE 1995-07-24 15:00:00 TS 42.5075 136.897 main 183 126 PPP___________ WP051995 42.1866 137.078 40 0 42.7053 136.803 2 1003 0 0 42.6305 136.809 2 31 999 TD 23 63
1995193N06156 1995 31 WP MM FAYE 1995-07-24 18:00:00 TS 42.9600 138.380 1004 tokyo main 122 32 OOO___________ jtwc_wp WP051995 42.6000 138.500 40 0 43.2000 138.300 2 1004 0 0 0 43.2000 138.300 1 29 1000 24 69
1995193N06156 1995 31 WP MM FAYE 1995-07-24 21:00:00 TS 43.3688 139.957 main 26 0 PPP___________ WP051995 42.9115 139.859 37 0 43.6261 140.061 2 1005 0 0 44.0260 140.048 1 29 1000 24 72
1995193N06156 1995 31 WP MM FAYE 1995-07-25 00:00:00 TS 43.7200 141.580 1006 tokyo main 0 0 OOO___________ jtwc_wp WP051995 43.2000 141.300 35 0 44.0000 142.000 2 1006 0 0 0 45.0000 142.000 1 29 1000 22 85
1995193N06156 1995 31 WP MM FAYE 1995-07-25 03:00:00 NR 43.5392 142.934 main 0 0 P_____________ WP051995 43.5392 142.934 32 -1 2 0 0 1 23 85
1995193N06156 1995 31 WP MM FAYE 1995-07-25 06:00:00 NR 43.9000 144.700 main 7 O_____________ jtwc_wp WP051995 43.9000 144.700 30 -1 26 74

Digital Typhoon Data and Search

About IBTrACS Database

This database is a web-friendly format of International Best Track Archive for Climate Stewardship (IBTrACS), a global best track data archive curated by NOAA dating back to 1842.

Updated: 2021-12-01